sensor_id;sensor_type;location;lat;lon;timestamp;pressure;altitude;pressure_sealevel;temperature;humidity
47524;BME280;33253;42.144;25.884;2024-02-16T00:01:34;101045.38;;;7.05;100.00
47524;BME280;33253;42.144;25.884;2024-02-16T00:04:01;101050.56;;;6.92;100.00
47524;BME280;33253;42.144;25.884;2024-02-16T00:06:27;101051.72;;;6.97;100.00
47524;BME280;33253;42.144;25.884;2024-02-16T00:08:52;101050.81;;;6.96;100.00
47524;BME280;33253;42.144;25.884;2024-02-16T00:11:18;101047.44;;;6.97;100.00
47524;BME280;33253;42.144;25.884;2024-02-16T00:13:43;101053.06;;;7.05;100.00
47524;BME280;33253;42.144;25.884;2024-02-16T00:16:09;101049.44;;;7.02;100.00
47524;BME280;33253;42.144;25.884;2024-02-16T00:18:34;101047.75;;;7.02;100.00
47524;BME280;33253;42.144;25.884;2024-02-16T00:21:00;101050.06;;;7.12;100.00
47524;BME280;33253;42.144;25.884;2024-02-16T00:23:26;100995.50;;;6.87;100.00
47524;BME280;33253;42.144;25.884;2024-02-16T00:25:52;101038.84;;;7.10;100.00
47524;BME280;33253;42.144;25.884;2024-02-16T00:28:18;101062.19;;;7.15;100.00
47524;BME280;33253;42.144;25.884;2024-02-16T00:30:45;101054.94;;;7.08;100.00
47524;BME280;33253;42.144;25.884;2024-02-16T00:33:12;101030.38;;;6.98;100.00
47524;BME280;33253;42.144;25.884;2024-02-16T00:35:37;101042.44;;;6.99;100.00
47524;BME280;33253;42.144;25.884;2024-02-16T00:38:03;101050.59;;;7.07;100.00
47524;BME280;33253;42.144;25.884;2024-02-16T00:40:28;101048.03;;;7.07;100.00
47524;BME280;33253;42.144;25.884;2024-02-16T00:42:55;101058.75;;;7.15;100.00
47524;BME280;33253;42.144;25.884;2024-02-16T00:45:20;101053.28;;;7.23;100.00
47524;BME280;33253;42.144;25.884;2024-02-16T00:47:46;101042.50;;;7.29;100.00
47524;BME280;33253;42.144;25.884;2024-02-16T00:50:11;101027.94;;;7.15;100.00
47524;BME280;33253;42.144;25.884;2024-02-16T00:52:38;101049.94;;;7.24;100.00
47524;BME280;33253;42.144;25.884;2024-02-16T00:55:05;101046.72;;;7.28;100.00
47524;BME280;33253;42.144;25.884;2024-02-16T00:57:30;101048.88;;;7.36;100.00
47524;BME280;33253;42.144;25.884;2024-02-16T00:59:56;101046.84;;;7.45;100.00
47524;BME280;33253;42.144;25.884;2024-02-16T01:02:21;101041.91;;;7.48;100.00
47524;BME280;33253;42.144;25.884;2024-02-16T01:04:48;100987.03;;;7.18;100.00
47524;BME280;33253;42.144;25.884;2024-02-16T01:07:15;101036.22;;;7.54;100.00
47524;BME280;33253;42.144;25.884;2024-02-16T01:09:41;101032.59;;;7.50;100.00
47524;BME280;33253;42.144;25.884;2024-02-16T01:12:06;101029.84;;;7.47;100.00
47524;BME280;33253;42.144;25.884;2024-02-16T01:14:32;100979.22;;;7.16;100.00
47524;BME280;33253;42.144;25.884;2024-02-16T01:16:57;101021.31;;;7.33;100.00
47524;BME280;33253;42.144;25.884;2024-02-16T01:19:23;101022.84;;;7.44;100.00
47524;BME280;33253;42.144;25.884;2024-02-16T01:21:49;101016.84;;;7.44;100.00
47524;BME280;33253;42.144;25.884;2024-02-16T01:24:19;100957.88;;;7.02;100.00
47524;BME280;33253;42.144;25.884;2024-02-16T01:26:46;101003.34;;;7.18;100.00
47524;BME280;33253;42.144;25.884;2024-02-16T01:29:11;101026.53;;;7.20;100.00
47524;BME280;33253;42.144;25.884;2024-02-16T01:31:37;101027.31;;;7.19;100.00
47524;BME280;33253;42.144;25.884;2024-02-16T01:34:03;101021.94;;;7.14;100.00
47524;BME280;33253;42.144;25.884;2024-02-16T01:36:28;101021.81;;;7.12;100.00
47524;BME280;33253;42.144;25.884;2024-02-16T01:38:53;101029.50;;;7.12;100.00
47524;BME280;33253;42.144;25.884;2024-02-16T01:41:19;100980.78;;;6.84;100.00
47524;BME280;33253;42.144;25.884;2024-02-16T01:43:45;101029.72;;;7.16;100.00
47524;BME280;33253;42.144;25.884;2024-02-16T01:46:10;101020.69;;;7.22;100.00
47524;BME280;33253;42.144;25.884;2024-02-16T01:48:36;100959.22;;;6.95;100.00
47524;BME280;33253;42.144;25.884;2024-02-16T01:51:05;101003.63;;;7.23;100.00
47524;BME280;33253;42.144;25.884;2024-02-16T01:53:32;101008.63;;;7.21;100.00
47524;BME280;33253;42.144;25.884;2024-02-16T01:55:57;100981.97;;;7.04;100.00
47524;BME280;33253;42.144;25.884;2024-02-16T01:58:23;101018.28;;;7.10;100.00
47524;BME280;33253;42.144;25.884;2024-02-16T02:00:49;101022.53;;;7.10;100.00
47524;BME280;33253;42.144;25.884;2024-02-16T02:03:14;101025.75;;;6.92;100.00
47524;BME280;33253;42.144;25.884;2024-02-16T02:05:44;101003.22;;;6.73;100.00
47524;BME280;33253;42.144;25.884;2024-02-16T02:08:13;101015.78;;;6.69;100.00
47524;BME280;33253;42.144;25.884;2024-02-16T02:10:40;101024.84;;;6.77;100.00
47524;BME280;33253;42.144;25.884;2024-02-16T02:13:05;101031.88;;;6.66;100.00
47524;BME280;33253;42.144;25.884;2024-02-16T02:15:31;100974.69;;;6.40;100.00
47524;BME280;33253;42.144;25.884;2024-02-16T02:17:56;101024.06;;;6.78;100.00
47524;BME280;33253;42.144;25.884;2024-02-16T02:20:24;101028.84;;;6.87;100.00
47524;BME280;33253;42.144;25.884;2024-02-16T02:22:50;101031.88;;;6.94;100.00
47524;BME280;33253;42.144;25.884;2024-02-16T02:25:15;101008.88;;;6.96;100.00
47524;BME280;33253;42.144;25.884;2024-02-16T02:27:41;100964.03;;;6.76;100.00
47524;BME280;33253;42.144;25.884;2024-02-16T02:30:07;101016.22;;;7.05;100.00
47524;BME280;33253;42.144;25.884;2024-02-16T02:32:32;101032.19;;;7.14;100.00
47524;BME280;33253;42.144;25.884;2024-02-16T02:34:58;101029.09;;;7.20;100.00
47524;BME280;33253;42.144;25.884;2024-02-16T02:37:23;101040.81;;;7.29;100.00
47524;BME280;33253;42.144;25.884;2024-02-16T02:39:49;101037.63;;;7.34;100.00
47524;BME280;33253;42.144;25.884;2024-02-16T02:42:14;101013.19;;;7.25;100.00
47524;BME280;33253;42.144;25.884;2024-02-16T02:44:40;101030.44;;;7.28;100.00
47524;BME280;33253;42.144;25.884;2024-02-16T02:47:05;101035.31;;;7.23;100.00
47524;BME280;33253;42.144;25.884;2024-02-16T02:49:31;101044.00;;;7.25;100.00
47524;BME280;33253;42.144;25.884;2024-02-16T02:52:00;100989.03;;;6.93;100.00
47524;BME280;33253;42.144;25.884;2024-02-16T02:54:25;101006.28;;;6.96;100.00
47524;BME280;33253;42.144;25.884;2024-02-16T02:56:51;101048.84;;;7.21;100.00
47524;BME280;33253;42.144;25.884;2024-02-16T02:59:16;100983.63;;;6.89;100.00
47524;BME280;33253;42.144;25.884;2024-02-16T03:01:42;101036.47;;;7.28;100.00
47524;BME280;33253;42.144;25.884;2024-02-16T03:04:07;101025.53;;;7.18;100.00
47524;BME280;33253;42.144;25.884;2024-02-16T03:06:34;101044.78;;;7.24;100.00
47524;BME280;33253;42.144;25.884;2024-02-16T03:09:00;101024.25;;;6.96;100.00
47524;BME280;33253;42.144;25.884;2024-02-16T03:11:25;101033.66;;;6.95;100.00
47524;BME280;33253;42.144;25.884;2024-02-16T03:13:51;100999.19;;;6.77;100.00
47524;BME280;33253;42.144;25.884;2024-02-16T03:16:16;101024.97;;;6.93;100.00
47524;BME280;33253;42.144;25.884;2024-02-16T03:18:42;101056.22;;;7.01;100.00
47524;BME280;33253;42.144;25.884;2024-02-16T03:21:08;101052.78;;;7.01;100.00
47524;BME280;33253;42.144;25.884;2024-02-16T03:23:33;101060.41;;;6.99;100.00
47524;BME280;33253;42.144;25.884;2024-02-16T03:26:00;101062.97;;;6.99;100.00
47524;BME280;33253;42.144;25.884;2024-02-16T03:28:26;101060.41;;;6.99;100.00
47524;BME280;33253;42.144;25.884;2024-02-16T03:30:51;101053.50;;;6.98;100.00
47524;BME280;33253;42.144;25.884;2024-02-16T03:33:17;101064.94;;;7.03;100.00
47524;BME280;33253;42.144;25.884;2024-02-16T03:35:42;100977.84;;;6.50;100.00
47524;BME280;33253;42.144;25.884;2024-02-16T03:38:08;101059.75;;;6.88;100.00
47524;BME280;33253;42.144;25.884;2024-02-16T03:40:33;101064.16;;;6.91;100.00
47524;BME280;33253;42.144;25.884;2024-02-16T03:43:00;100923.41;;;6.12;100.00
47524;BME280;33253;42.144;25.884;2024-02-16T03:45:26;101063.75;;;6.98;100.00
47524;BME280;33253;42.144;25.884;2024-02-16T03:47:54;101055.09;;;6.83;100.00
47524;BME280;33253;42.144;25.884;2024-02-16T03:50:20;101062.09;;;6.85;100.00
47524;BME280;33253;42.144;25.884;2024-02-16T03:52:46;101061.16;;;6.83;100.00
47524;BME280;33253;42.144;25.884;2024-02-16T03:55:11;101057.81;;;6.71;100.00
47524;BME280;33253;42.144;25.884;2024-02-16T03:57:37;101036.44;;;6.57;100.00
47524;BME280;33253;42.144;25.884;2024-02-16T04:00:03;101066.69;;;6.76;100.00
47524;BME280;33253;42.144;25.884;2024-02-16T04:02:31;101055.75;;;6.65;100.00
47524;BME280;33253;42.144;25.884;2024-02-16T04:04:57;101062.34;;;6.61;100.00
47524;BME280;33253;42.144;25.884;2024-02-16T04:07:22;101066.91;;;6.66;100.00
47524;BME280;33253;42.144;25.884;2024-02-16T04:09:47;101044.63;;;6.38;100.00
47524;BME280;33253;42.144;25.884;2024-02-16T04:12:13;101066.84;;;6.51;100.00
47524;BME280;33253;42.144;25.884;2024-02-16T04:14:38;101053.53;;;6.29;100.00
47524;BME280;33253;42.144;25.884;2024-02-16T04:17:04;101052.84;;;6.19;100.00
47524;BME280;33253;42.144;25.884;2024-02-16T04:19:30;101068.03;;;6.29;100.00
47524;BME280;33253;42.144;25.884;2024-02-16T04:21:55;101053.03;;;6.22;100.00
47524;BME280;33253;42.144;25.884;2024-02-16T04:24:21;101070.09;;;6.35;100.00
47524;BME280;33253;42.144;25.884;2024-02-16T04:26:46;101027.31;;;6.20;100.00
47524;BME280;33253;42.144;25.884;2024-02-16T04:29:12;101048.19;;;6.40;100.00
47524;BME280;33253;42.144;25.884;2024-02-16T04:31:41;101075.50;;;6.53;100.00
47524;BME280;33253;42.144;25.884;2024-02-16T04:34:11;101068.78;;;6.55;100.00
47524;BME280;33253;42.144;25.884;2024-02-16T04:36:36;101063.06;;;6.45;100.00
47524;BME280;33253;42.144;25.884;2024-02-16T04:39:02;101030.56;;;6.31;100.00
47524;BME280;33253;42.144;25.884;2024-02-16T04:41:28;101068.72;;;6.53;100.00
47524;BME280;33253;42.144;25.884;2024-02-16T04:43:54;101074.00;;;6.56;100.00
47524;BME280;33253;42.144;25.884;2024-02-16T04:46:19;101074.22;;;6.59;100.00
47524;BME280;33253;42.144;25.884;2024-02-16T04:48:45;101075.88;;;6.59;100.00
47524;BME280;33253;42.144;25.884;2024-02-16T04:51:11;101077.56;;;6.58;100.00
47524;BME280;33253;42.144;25.884;2024-02-16T04:53:37;101070.69;;;6.44;100.00
47524;BME280;33253;42.144;25.884;2024-02-16T04:56:03;101082.31;;;6.52;100.00
47524;BME280;33253;42.144;25.884;2024-02-16T04:58:28;101079.94;;;6.55;100.00
47524;BME280;33253;42.144;25.884;2024-02-16T05:00:54;101078.84;;;6.65;100.00
47524;BME280;33253;42.144;25.884;2024-02-16T05:03:19;101084.34;;;6.71;100.00
47524;BME280;33253;42.144;25.884;2024-02-16T05:05:45;101089.56;;;6.73;100.00
47524;BME280;33253;42.144;25.884;2024-02-16T05:08:11;101069.84;;;6.72;100.00
47524;BME280;33253;42.144;25.884;2024-02-16T05:10:36;101014.47;;;6.47;100.00
47524;BME280;33253;42.144;25.884;2024-02-16T05:13:03;101088.44;;;6.96;100.00
47524;BME280;33253;42.144;25.884;2024-02-16T05:15:28;101055.31;;;6.86;100.00
47524;BME280;33253;42.144;25.884;2024-02-16T05:17:54;101103.47;;;7.18;100.00
47524;BME280;33253;42.144;25.884;2024-02-16T05:20:20;101093.00;;;7.15;100.00
47524;BME280;33253;42.144;25.884;2024-02-16T05:22:46;101079.47;;;7.18;100.00
47524;BME280;33253;42.144;25.884;2024-02-16T05:25:12;101103.47;;;7.18;100.00
47524;BME280;33253;42.144;25.884;2024-02-16T05:27:38;101108.47;;;7.02;100.00
47524;BME280;33253;42.144;25.884;2024-02-16T05:30:04;101103.13;;;6.99;100.00
47524;BME280;33253;42.144;25.884;2024-02-16T05:32:38;101114.16;;;7.11;100.00
47524;BME280;33253;42.144;25.884;2024-02-16T05:35:04;101100.16;;;7.06;100.00
47524;BME280;33253;42.144;25.884;2024-02-16T05:37:37;101118.47;;;7.25;100.00
47524;BME280;33253;42.144;25.884;2024-02-16T05:40:07;101109.06;;;7.26;100.00
47524;BME280;33253;42.144;25.884;2024-02-16T05:42:53;101123.38;;;7.36;100.00
47524;BME280;33253;42.144;25.884;2024-02-16T05:45:20;101126.31;;;7.42;100.00
47524;BME280;33253;42.144;25.884;2024-02-16T05:47:49;101056.44;;;7.04;100.00
47524;BME280;33253;42.144;25.884;2024-02-16T05:50:15;101125.78;;;7.48;100.00
47524;BME280;33253;42.144;25.884;2024-02-16T05:52:41;101083.69;;;7.31;100.00
47524;BME280;33253;42.144;25.884;2024-02-16T05:55:08;101139.63;;;7.65;100.00
47524;BME280;33253;42.144;25.884;2024-02-16T05:57:34;101135.47;;;7.67;100.00
47524;BME280;33253;42.144;25.884;2024-02-16T06:00:01;101135.56;;;7.68;100.00
47524;BME280;33253;42.144;25.884;2024-02-16T06:02:29;101134.69;;;7.68;100.00
47524;BME280;33253;42.144;25.884;2024-02-16T06:04:55;101137.16;;;7.66;100.00
47524;BME280;33253;42.144;25.884;2024-02-16T06:07:20;101141.59;;;7.69;100.00
47524;BME280;33253;42.144;25.884;2024-02-16T06:09:46;101094.59;;;7.41;100.00
47524;BME280;33253;42.144;25.884;2024-02-16T06:12:13;101138.06;;;7.67;100.00
47524;BME280;33253;42.144;25.884;2024-02-16T06:14:41;101118.53;;;7.55;100.00
47524;BME280;33253;42.144;25.884;2024-02-16T06:17:06;101139.56;;;7.78;100.00
47524;BME280;33253;42.144;25.884;2024-02-16T06:19:35;101145.88;;;7.83;100.00
47524;BME280;33253;42.144;25.884;2024-02-16T06:22:00;101140.72;;;7.83;100.00
47524;BME280;33253;42.144;25.884;2024-02-16T06:24:26;101144.38;;;7.87;100.00
47524;BME280;33253;42.144;25.884;2024-02-16T06:26:51;101146.94;;;7.87;100.00
47524;BME280;33253;42.144;25.884;2024-02-16T06:29:17;101090.28;;;7.55;100.00
47524;BME280;33253;42.144;25.884;2024-02-16T06:31:45;101145.34;;;7.89;100.00
47524;BME280;33253;42.144;25.884;2024-02-16T06:34:13;101149.78;;;7.91;100.00
47524;BME280;33253;42.144;25.884;2024-02-16T06:36:39;101148.81;;;7.89;100.00
47524;BME280;33253;42.144;25.884;2024-02-16T06:39:04;101152.44;;;7.93;100.00
47524;BME280;33253;42.144;25.884;2024-02-16T06:41:29;101133.72;;;7.81;100.00
47524;BME280;33253;42.144;25.884;2024-02-16T06:43:55;101019.69;;;7.05;100.00
47524;BME280;33253;42.144;25.884;2024-02-16T06:46:20;101154.28;;;7.81;100.00
47524;BME280;33253;42.144;25.884;2024-02-16T06:48:47;101142.16;;;7.78;100.00
47524;BME280;33253;42.144;25.884;2024-02-16T06:51:13;101154.22;;;7.79;100.00
47524;BME280;33253;42.144;25.884;2024-02-16T06:53:39;101141.16;;;7.76;100.00
47524;BME280;33253;42.144;25.884;2024-02-16T06:56:05;101154.56;;;7.85;100.00
47524;BME280;33253;42.144;25.884;2024-02-16T06:58:50;101164.44;;;7.92;100.00
47524;BME280;33253;42.144;25.884;2024-02-16T07:01:16;101149.50;;;7.87;100.00
47524;BME280;33253;42.144;25.884;2024-02-16T07:03:44;101090.00;;;7.51;100.00
47524;BME280;33253;42.144;25.884;2024-02-16T07:06:09;101161.50;;;8.01;100.00
47524;BME280;33253;42.144;25.884;2024-02-16T07:08:39;101173.09;;;8.09;100.00
47524;BME280;33253;42.144;25.884;2024-02-16T07:11:05;101084.00;;;7.65;100.00
47524;BME280;33253;42.144;25.884;2024-02-16T07:13:31;101172.59;;;8.15;100.00
47524;BME280;33253;42.144;25.884;2024-02-16T07:15:57;101177.03;;;8.18;100.00
47524;BME280;33253;42.144;25.884;2024-02-16T07:18:23;101174.25;;;8.15;100.00
47524;BME280;33253;42.144;25.884;2024-02-16T07:20:48;101176.13;;;8.17;100.00
47524;BME280;33253;42.144;25.884;2024-02-16T07:23:14;101181.63;;;8.23;100.00
47524;BME280;33253;42.144;25.884;2024-02-16T07:25:43;101175.59;;;8.23;100.00
47524;BME280;33253;42.144;25.884;2024-02-16T07:28:09;101178.09;;;8.21;100.00
47524;BME280;33253;42.144;25.884;2024-02-16T07:30:35;101180.81;;;8.24;100.00
47524;BME280;33253;42.144;25.884;2024-02-16T07:33:05;101162.38;;;8.17;100.00
47524;BME280;33253;42.144;25.884;2024-02-16T07:35:30;101171.44;;;8.25;100.00
47524;BME280;33253;42.144;25.884;2024-02-16T07:37:56;101178.97;;;8.37;100.00
47524;BME280;33253;42.144;25.884;2024-02-16T07:40:21;101196.13;;;8.51;100.00
47524;BME280;33253;42.144;25.884;2024-02-16T07:42:47;101187.13;;;8.60;100.00
47524;BME280;33253;42.144;25.884;2024-02-16T07:45:13;101195.91;;;8.63;100.00
47524;BME280;33253;42.144;25.884;2024-02-16T07:47:41;101195.38;;;8.69;100.00
47524;BME280;33253;42.144;25.884;2024-02-16T07:50:08;101199.38;;;8.79;100.00
47524;BME280;33253;42.144;25.884;2024-02-16T07:52:33;101183.91;;;8.79;100.00
47524;BME280;33253;42.144;25.884;2024-02-16T07:55:00;101198.50;;;8.95;100.00
47524;BME280;33253;42.144;25.884;2024-02-16T07:57:26;101187.84;;;9.03;100.00
47524;BME280;33253;42.144;25.884;2024-02-16T07:59:52;101138.03;;;8.71;100.00
47524;BME280;33253;42.144;25.884;2024-02-16T08:02:18;101193.41;;;9.11;100.00
47524;BME280;33253;42.144;25.884;2024-02-16T08:04:48;101203.72;;;9.11;100.00
47524;BME280;33253;42.144;25.884;2024-02-16T08:07:14;101202.19;;;9.15;100.00
47524;BME280;33253;42.144;25.884;2024-02-16T08:09:44;101203.25;;;9.18;100.00
47524;BME280;33253;42.144;25.884;2024-02-16T08:12:12;101202.59;;;9.22;100.00
47524;BME280;33253;42.144;25.884;2024-02-16T08:14:38;101205.34;;;9.26;100.00
47524;BME280;33253;42.144;25.884;2024-02-16T08:17:06;101193.63;;;9.16;99.50
47524;BME280;33253;42.144;25.884;2024-02-16T08:19:36;101202.69;;;9.24;99.32
47524;BME280;33253;42.144;25.884;2024-02-16T08:22:03;101207.91;;;9.26;100.00
47524;BME280;33253;42.144;25.884;2024-02-16T08:24:34;101204.53;;;9.27;99.69
47524;BME280;33253;42.144;25.884;2024-02-16T08:27:01;101192.38;;;9.24;99.19
47524;BME280;33253;42.144;25.884;2024-02-16T08:29:27;101172.16;;;9.15;99.73
47524;BME280;33253;42.144;25.884;2024-02-16T08:31:54;101129.06;;;8.96;99.00
47524;BME280;33253;42.144;25.884;2024-02-16T08:34:20;101195.22;;;9.45;99.08
47524;BME280;33253;42.144;25.884;2024-02-16T08:36:46;101196.19;;;9.47;96.42
47524;BME280;33253;42.144;25.884;2024-02-16T08:39:12;101173.38;;;9.22;96.11
47524;BME280;33253;42.144;25.884;2024-02-16T08:41:39;101208.69;;;9.39;97.29
47524;BME280;33253;42.144;25.884;2024-02-16T08:44:06;101217.88;;;9.51;96.92
47524;BME280;33253;42.144;25.884;2024-02-16T08:46:38;101213.66;;;9.53;96.13
47524;BME280;33253;42.144;25.884;2024-02-16T08:49:05;101219.72;;;9.70;96.02
47524;BME280;33253;42.144;25.884;2024-02-16T08:51:52;101211.00;;;9.68;96.27
47524;BME280;33253;42.144;25.884;2024-02-16T08:54:17;101178.16;;;9.64;94.03
47524;BME280;33253;42.144;25.884;2024-02-16T08:56:45;101227.63;;;9.90;94.45
47524;BME280;33253;42.144;25.884;2024-02-16T08:59:10;101218.25;;;9.92;93.95
47524;BME280;33253;42.144;25.884;2024-02-16T09:01:39;101224.63;;;9.98;93.13
47524;BME280;33253;42.144;25.884;2024-02-16T09:04:08;101134.66;;;9.53;93.54
47524;BME280;33253;42.144;25.884;2024-02-16T09:06:34;101215.50;;;10.05;91.83
47524;BME280;33253;42.144;25.884;2024-02-16T09:09:04;101213.41;;;10.14;89.95
47524;BME280;33253;42.144;25.884;2024-02-16T09:11:32;101148.09;;;9.81;92.10
47524;BME280;33253;42.144;25.884;2024-02-16T09:13:58;101215.13;;;10.32;90.31
47524;BME280;33253;42.144;25.884;2024-02-16T09:16:23;101213.31;;;10.47;91.67
47524;BME280;33253;42.144;25.884;2024-02-16T09:18:50;101174.63;;;10.31;90.80
47524;BME280;33253;42.144;25.884;2024-02-16T09:21:16;101208.53;;;10.55;89.09
47524;BME280;33253;42.144;25.884;2024-02-16T09:23:41;101215.50;;;10.74;89.89
47524;BME280;33253;42.144;25.884;2024-02-16T09:26:07;101225.72;;;10.73;88.53
47524;BME280;33253;42.144;25.884;2024-02-16T09:28:41;101195.34;;;10.67;89.22
47524;BME280;33253;42.144;25.884;2024-02-16T09:31:06;101209.97;;;10.84;88.78
47524;BME280;33253;42.144;25.884;2024-02-16T09:33:34;101218.81;;;10.72;89.14
47524;BME280;33253;42.144;25.884;2024-02-16T09:36:00;101211.44;;;10.79;90.75
47524;BME280;33253;42.144;25.884;2024-02-16T09:38:27;101154.75;;;10.46;89.04
47524;BME280;33253;42.144;25.884;2024-02-16T09:40:52;101205.22;;;10.94;89.35
47524;BME280;33253;42.144;25.884;2024-02-16T09:43:28;101210.81;;;10.85;86.73
47524;BME280;33253;42.144;25.884;2024-02-16T09:45:58;101184.78;;;10.62;86.61
47524;BME280;33253;42.144;25.884;2024-02-16T09:48:28;101202.28;;;10.68;85.83
47524;BME280;33253;42.144;25.884;2024-02-16T09:50:55;101207.06;;;10.78;85.64
47524;BME280;33253;42.144;25.884;2024-02-16T09:53:24;101197.41;;;10.74;85.15
47524;BME280;33253;42.144;25.884;2024-02-16T09:55:50;101186.88;;;10.70;87.44
47524;BME280;33253;42.144;25.884;2024-02-16T09:58:17;101127.16;;;10.45;86.68
47524;BME280;33253;42.144;25.884;2024-02-16T10:00:51;101138.91;;;10.57;86.34
47524;BME280;33253;42.144;25.884;2024-02-16T10:03:31;101115.94;;;10.63;87.61
47524;BME280;33253;42.144;25.884;2024-02-16T10:06:10;101172.19;;;11.06;86.27
47524;BME280;33253;42.144;25.884;2024-02-16T10:11:16;101112.09;;;10.91;85.78
47524;BME280;33253;42.144;25.884;2024-02-16T10:13:56;101187.84;;;11.47;87.16
47524;BME280;33253;42.144;25.884;2024-02-16T10:16:22;101091.06;;;11.03;85.85
47524;BME280;33253;42.144;25.884;2024-02-16T10:18:48;101170.34;;;11.61;87.35
47524;BME280;33253;42.144;25.884;2024-02-16T10:21:23;101161.16;;;11.68;86.76
47524;BME280;33253;42.144;25.884;2024-02-16T10:24:21;101168.75;;;11.84;86.19
47524;BME280;33253;42.144;25.884;2024-02-16T10:26:47;101127.31;;;11.63;84.56
47524;BME280;33253;42.144;25.884;2024-02-16T10:29:17;101102.13;;;11.59;85.00
47524;BME280;33253;42.144;25.884;2024-02-16T10:31:45;101076.09;;;11.54;85.84
47524;BME280;33253;42.144;25.884;2024-02-16T10:34:10;101161.22;;;12.10;85.87
47524;BME280;33253;42.144;25.884;2024-02-16T10:36:37;101104.50;;;11.95;87.62
47524;BME280;33253;42.144;25.884;2024-02-16T10:39:04;101156.19;;;12.34;84.43
47524;BME280;33253;42.144;25.884;2024-02-16T10:41:33;101158.28;;;12.43;82.15
47524;BME280;33253;42.144;25.884;2024-02-16T10:43:59;101162.13;;;12.32;80.67
47524;BME280;33253;42.144;25.884;2024-02-16T10:46:26;101159.47;;;12.51;82.20
47524;BME280;33253;42.144;25.884;2024-02-16T10:48:53;101159.19;;;12.66;82.81
47524;BME280;33253;42.144;25.884;2024-02-16T10:51:34;101145.34;;;12.88;82.62
47524;BME280;33253;42.144;25.884;2024-02-16T10:54:02;101139.81;;;13.02;83.12
47524;BME280;33253;42.144;25.884;2024-02-16T10:56:55;101141.63;;;13.04;81.01
47524;BME280;33253;42.144;25.884;2024-02-16T10:59:21;101158.00;;;13.03;80.88
47524;BME280;33253;42.144;25.884;2024-02-16T11:01:46;101146.34;;;12.92;80.60
47524;BME280;33253;42.144;25.884;2024-02-16T11:04:21;101166.97;;;12.66;81.92
47524;BME280;33253;42.144;25.884;2024-02-16T11:06:54;101146.88;;;12.60;82.56
47524;BME280;33253;42.144;25.884;2024-02-16T11:09:29;101146.97;;;12.41;83.12
47524;BME280;33253;42.144;25.884;2024-02-16T11:11:59;101146.59;;;12.32;83.21
47524;BME280;33253;42.144;25.884;2024-02-16T11:14:37;101123.81;;;12.23;83.68
47524;BME280;33253;42.144;25.884;2024-02-16T11:17:12;101134.41;;;12.29;84.17
47524;BME280;33253;42.144;25.884;2024-02-16T11:19:45;101129.34;;;12.32;82.92
47524;BME280;33253;42.144;25.884;2024-02-16T11:22:11;101077.03;;;11.77;82.76
47524;BME280;33253;42.144;25.884;2024-02-16T11:24:43;101138.44;;;12.01;83.79
47524;BME280;33253;42.144;25.884;2024-02-16T11:27:12;101132.97;;;11.95;85.98
47524;BME280;33253;42.144;25.884;2024-02-16T11:29:38;101125.31;;;11.96;86.47
47524;BME280;33253;42.144;25.884;2024-02-16T11:32:05;101131.53;;;12.00;86.23
47524;BME280;33253;42.144;25.884;2024-02-16T11:34:32;101124.13;;;12.09;85.52
47524;BME280;33253;42.144;25.884;2024-02-16T11:37:01;101115.91;;;12.20;85.20
47524;BME280;33253;42.144;25.884;2024-02-16T11:39:29;101115.47;;;12.30;85.42
47524;BME280;33253;42.144;25.884;2024-02-16T11:42:09;101053.28;;;12.07;84.93
47524;BME280;33253;42.144;25.884;2024-02-16T11:44:50;101115.78;;;12.60;84.74
47524;BME280;33253;42.144;25.884;2024-02-16T11:47:25;101110.81;;;12.65;84.30
47524;BME280;33253;42.144;25.884;2024-02-16T11:50:07;101115.69;;;12.57;83.75
47524;BME280;33253;42.144;25.884;2024-02-16T11:52:40;101102.06;;;12.40;85.53
47524;BME280;33253;42.144;25.884;2024-02-16T11:55:10;101114.44;;;12.48;85.60
47524;BME280;33253;42.144;25.884;2024-02-16T11:57:55;101118.56;;;12.42;84.48
47524;BME280;33253;42.144;25.884;2024-02-16T12:00:22;101119.81;;;12.31;85.73
47524;BME280;33253;42.144;25.884;2024-02-16T12:02:47;101050.13;;;11.93;85.79
47524;BME280;33253;42.144;25.884;2024-02-16T12:05:15;101040.25;;;12.04;86.88
47524;BME280;33253;42.144;25.884;2024-02-16T12:07:41;101096.31;;;12.48;85.78
47524;BME280;33253;42.144;25.884;2024-02-16T12:10:07;101116.31;;;12.52;86.24
47524;BME280;33253;42.144;25.884;2024-02-16T12:12:33;101121.16;;;12.65;84.98
47524;BME280;33253;42.144;25.884;2024-02-16T12:14:59;101111.72;;;12.67;85.17
47524;BME280;33253;42.144;25.884;2024-02-16T12:17:24;101079.59;;;12.39;85.54
47524;BME280;33253;42.144;25.884;2024-02-16T12:19:51;101114.44;;;12.70;86.00
47524;BME280;33253;42.144;25.884;2024-02-16T12:22:20;101116.47;;;12.77;84.49
47524;BME280;33253;42.144;25.884;2024-02-16T12:24:46;101115.41;;;12.72;83.85
47524;BME280;33253;42.144;25.884;2024-02-16T12:27:12;101105.38;;;12.59;84.75
47524;BME280;33253;42.144;25.884;2024-02-16T12:29:39;101075.13;;;12.35;85.04
47524;BME280;33253;42.144;25.884;2024-02-16T12:32:05;101106.91;;;12.54;85.23
47524;BME280;33253;42.144;25.884;2024-02-16T12:34:31;101115.09;;;12.65;85.31
47524;BME280;33253;42.144;25.884;2024-02-16T12:36:57;101090.59;;;12.56;85.38
47524;BME280;33253;42.144;25.884;2024-02-16T12:39:22;101094.53;;;12.69;85.49
47524;BME280;33253;42.144;25.884;2024-02-16T12:41:48;101032.19;;;12.42;84.92
47524;BME280;33253;42.144;25.884;2024-02-16T12:44:14;101105.59;;;12.88;85.48